createdAt,value
2022-12-18T09:56:12.019Z,19.63
2022-12-18T09:58:42.117Z,19.75
2022-12-18T10:01:12.090Z,16.13
2022-12-18T10:03:39.187Z,17.77
2022-12-18T10:06:18.215Z,19.88
2022-12-18T10:08:51.049Z,21.10
2022-12-18T10:11:44.525Z,19.25
2022-12-18T10:14:14.434Z,19.00
2022-12-18T10:16:49.357Z,19.17
2022-12-18T10:19:40.588Z,18.65
2022-12-18T10:22:16.871Z,20.17
2022-12-18T10:24:49.667Z,21.15
2022-12-18T10:27:17.408Z,20.90
2022-12-18T10:29:44.681Z,21.42
2022-12-18T10:32:15.963Z,20.10
2022-12-18T10:34:43.171Z,19.98
2022-12-18T10:37:12.339Z,19.67
2022-12-18T10:39:39.416Z,20.08
2022-12-18T10:42:32.775Z,19.50
2022-12-18T10:45:03.391Z,20.92
2022-12-18T10:47:30.439Z,18.15
2022-12-18T10:49:57.436Z,16.52
2022-12-18T10:52:27.628Z,16.35
2022-12-18T10:54:59.435Z,17.13
2022-12-18T10:57:26.471Z,17.13
2022-12-18T10:59:57.518Z,15.07
2022-12-18T11:02:35.615Z,14.68
2022-12-18T11:05:02.890Z,15.00
2022-12-18T11:07:55.022Z,16.05
2022-12-18T11:10:23.058Z,14.43
2022-12-18T11:12:50.159Z,15.25
2022-12-18T11:15:18.534Z,14.73
2022-12-18T11:17:45.585Z,15.93
2022-12-18T11:20:22.121Z,15.77
2022-12-18T11:23:02.436Z,16.50
2022-12-18T11:25:34.527Z,16.80
2022-12-18T11:28:04.047Z,15.65
2022-12-18T11:30:32.107Z,17.67
2022-12-18T11:33:12.034Z,17.05
2022-12-18T11:35:39.165Z,17.75
2022-12-18T11:38:08.045Z,17.33
2022-12-18T11:40:40.870Z,18.42
2022-12-18T11:43:12.471Z,19.48
2022-12-18T11:45:44.638Z,19.08
2022-12-18T11:48:11.678Z,18.52
2022-12-18T11:50:38.717Z,20.10
2022-12-18T11:53:06.586Z,19.15
2022-12-18T11:55:48.858Z,20.90
2022-12-18T11:58:38.148Z,20.63
2022-12-18T12:01:11.560Z,19.35
2022-12-18T12:03:42.021Z,19.65
2022-12-18T12:06:12.685Z,20.70
2022-12-18T12:08:46.129Z,20.08
2022-12-18T12:11:31.537Z,22.60
2022-12-18T12:14:07.484Z,21.92
2022-12-18T12:17:00.778Z,22.17
2022-12-18T12:19:27.818Z,23.67
2022-12-18T12:22:10.222Z,23.15
2022-12-18T12:24:46.525Z,22.55
2022-12-18T12:27:16.341Z,23.52
2022-12-18T12:29:44.331Z,23.73
2022-12-18T12:32:30.148Z,25.65
2022-12-18T12:35:20.131Z,24.63
2022-12-18T12:37:47.184Z,25.38
2022-12-18T12:40:50.233Z,25.17
2022-12-18T12:43:32.271Z,23.75
2022-12-18T12:48:43.320Z,23.48
2022-12-18T12:51:21.267Z,24.50
2022-12-18T12:53:48.789Z,24.83
2022-12-18T12:56:16.476Z,23.77
2022-12-18T12:58:47.453Z,23.60
2022-12-18T13:01:27.056Z,24.63
2022-12-18T13:03:58.654Z,23.85
2022-12-18T13:06:31.430Z,23.58
2022-12-18T13:08:59.340Z,22.88
2022-12-18T13:12:11.270Z,23.38
2022-12-18T13:14:39.122Z,22.83
2022-12-18T13:17:16.753Z,22.65
2022-12-18T13:19:43.861Z,22.13
2022-12-18T13:22:23.805Z,23.45
2022-12-18T13:24:50.934Z,23.95
2022-12-18T13:27:38.707Z,24.80
2022-12-18T13:30:16.438Z,22.13
2022-12-18T13:32:43.774Z,23.63
2022-12-18T13:35:21.026Z,22.45
2022-12-18T13:37:53.816Z,22.85
2022-12-18T13:40:40.061Z,23.92
2022-12-18T13:43:19.385Z,23.60
2022-12-18T13:46:06.663Z,24.48
2022-12-18T13:48:34.768Z,23.27
2022-12-18T13:51:03.117Z,23.73
2022-12-18T13:53:54.057Z,22.33
2022-12-18T13:56:25.426Z,22.42
2022-12-18T13:59:11.846Z,22.23
2022-12-18T14:01:43.519Z,23.95
2022-12-18T14:04:14.148Z,23.77
2022-12-18T14:06:41.270Z,23.38
2022-12-18T14:09:09.577Z,23.80
2022-12-18T14:11:36.625Z,23.60
2022-12-18T14:14:08.243Z,23.38
2022-12-18T14:16:35.315Z,24.73
2022-12-18T14:19:14.869Z,23.90
2022-12-18T14:21:42.783Z,23.92
2022-12-18T14:24:19.557Z,22.65
2022-12-18T14:26:47.019Z,22.65
2022-12-18T14:29:21.649Z,22.70
2022-12-18T14:31:52.697Z,22.30
2022-12-18T14:34:20.474Z,23.40
2022-12-18T14:36:53.703Z,21.95
2022-12-18T14:39:20.734Z,21.73
2022-12-18T14:41:50.010Z,24.02
2022-12-18T14:44:17.046Z,22.40
2022-12-18T14:46:44.394Z,22.75
2022-12-18T14:49:22.326Z,23.38
2022-12-18T14:51:53.200Z,22.92
2022-12-18T14:54:20.973Z,22.95
2022-12-18T14:56:48.930Z,21.88
2022-12-18T14:59:24.084Z,22.52
2022-12-18T15:02:00.800Z,22.33
2022-12-18T15:04:36.198Z,22.70
2022-12-18T15:07:07.702Z,22.13
2022-12-18T15:09:34.746Z,22.98
2022-12-18T15:12:02.102Z,24.77
2022-12-18T15:14:33.367Z,23.98
2022-12-18T15:17:01.074Z,24.33
2022-12-18T15:19:39.000Z,24.98
2022-12-18T15:22:06.932Z,25.30
2022-12-18T15:24:34.199Z,25.90
2022-12-18T15:27:01.514Z,26.15
2022-12-18T15:29:28.625Z,25.13
2022-12-18T15:32:02.656Z,25.55
2022-12-18T15:34:29.833Z,27.23
2022-12-18T15:36:56.979Z,26.10
2022-12-18T15:39:24.014Z,25.40
2022-12-18T15:42:09.662Z,24.30
2022-12-18T15:44:36.939Z,23.73
2022-12-18T15:47:03.993Z,24.65
2022-12-18T15:49:31.055Z,25.48
2022-12-18T15:52:01.249Z,23.63
2022-12-18T15:54:46.947Z,25.02
2022-12-18T15:57:26.245Z,25.50
2022-12-18T15:59:54.097Z,29.88
2022-12-18T16:02:21.784Z,27.77
2022-12-18T16:04:49.031Z,26.02
2022-12-18T16:07:22.911Z,26.05
2022-12-18T16:09:52.823Z,28.30
2022-12-18T16:12:22.038Z,28.17
2022-12-18T16:14:49.065Z,26.60
2022-12-18T16:17:16.323Z,25.73
2022-12-18T16:19:46.501Z,26.52
2022-12-18T16:22:23.476Z,25.65
2022-12-18T16:24:50.885Z,26.35
2022-12-18T16:27:18.033Z,25.92
2022-12-18T16:29:45.159Z,25.60
2022-12-18T16:32:16.185Z,26.98
2022-12-18T16:34:43.261Z,24.75
2022-12-18T16:37:10.583Z,24.65
2022-12-18T16:39:37.848Z,24.30
2022-12-18T16:42:05.678Z,24.80
2022-12-18T16:44:33.434Z,23.70
2022-12-18T16:47:02.818Z,24.17
2022-12-18T16:49:30.381Z,25.30
2022-12-18T16:51:57.498Z,24.08
2022-12-18T16:54:24.918Z,23.38
2022-12-18T16:56:52.241Z,24.48
2022-12-18T16:59:19.288Z,23.85
2022-12-18T17:01:47.107Z,25.40
2022-12-18T17:04:14.377Z,23.95
2022-12-18T17:06:42.550Z,22.42
2022-12-18T17:09:10.324Z,23.70
2022-12-18T17:11:37.322Z,25.00
2022-12-18T17:14:08.059Z,24.48
2022-12-18T17:16:35.762Z,25.90
2022-12-18T17:19:03.655Z,25.08
2022-12-18T17:21:30.706Z,23.30
2022-12-18T17:24:00.083Z,22.42
2022-12-18T17:26:27.145Z,23.35
2022-12-18T17:28:54.325Z,26.38
2022-12-18T17:31:22.267Z,24.42
2022-12-18T17:33:49.484Z,28.50
2022-12-18T17:36:16.658Z,28.30
2022-12-18T17:38:43.845Z,27.80
2022-12-18T17:41:11.252Z,28.95
2022-12-18T17:43:45.850Z,27.95
2022-12-18T17:46:13.753Z,27.40
2022-12-18T17:48:41.343Z,25.73
2022-12-18T17:51:09.515Z,24.83
2022-12-18T17:53:39.571Z,24.75
2022-12-18T17:56:08.106Z,25.42
2022-12-18T17:58:35.495Z,25.08
2022-12-18T18:01:02.647Z,24.27
2022-12-18T18:03:29.957Z,25.75
2022-12-18T18:05:57.560Z,23.58
2022-12-18T18:08:24.751Z,23.80
2022-12-18T18:10:51.922Z,25.55
2022-12-18T18:13:43.352Z,26.10
2022-12-18T18:16:13.696Z,26.10
2022-12-18T18:18:40.786Z,26.05
2022-12-18T18:21:08.100Z,25.75
2022-12-18T18:23:35.485Z,24.75
2022-12-18T18:26:09.265Z,25.38
2022-12-18T18:28:36.859Z,25.88
2022-12-18T18:31:07.206Z,24.70
2022-12-18T18:36:01.508Z,23.02
2022-12-18T18:38:29.132Z,23.35
2022-12-18T18:41:02.595Z,24.65
2022-12-18T18:43:29.993Z,24.77
2022-12-18T18:45:57.601Z,26.42
2022-12-18T18:48:24.707Z,23.80
2022-12-18T18:50:59.677Z,24.88
2022-12-18T18:53:29.301Z,24.52
2022-12-18T18:56:34.874Z,27.03
2022-12-18T18:58:47.219Z,23.58
2022-12-18T19:01:15.323Z,25.23
2022-12-18T19:03:42.916Z,24.85
2022-12-18T19:06:11.878Z,27.83
2022-12-18T19:08:39.500Z,25.75
2022-12-18T19:11:31.732Z,26.67
2022-12-18T19:14:02.173Z,26.38
2022-12-18T19:16:29.253Z,25.52
2022-12-18T19:19:01.418Z,26.60
2022-12-18T19:21:29.037Z,26.00
2022-12-18T19:23:58.608Z,25.42
2022-12-18T19:26:27.994Z,24.33
2022-12-18T19:28:55.672Z,23.20
2022-12-18T19:31:27.069Z,23.70
2022-12-18T19:33:56.535Z,24.17
2022-12-18T19:36:25.119Z,27.50
2022-12-18T19:38:52.498Z,25.73
2022-12-18T19:41:19.867Z,25.33
2022-12-18T19:43:47.357Z,26.73
2022-12-18T19:46:15.936Z,27.55
2022-12-18T19:48:44.214Z,26.83
2022-12-18T19:51:15.752Z,26.05
2022-12-18T19:53:42.935Z,26.77
2022-12-18T19:56:10.507Z,27.95
2022-12-18T19:58:37.684Z,26.42
2022-12-18T20:01:04.962Z,27.42
2022-12-18T20:03:33.931Z,28.17
2022-12-18T20:06:11.440Z,28.42
2022-12-18T20:08:38.822Z,27.60
2022-12-18T20:11:06.011Z,29.73
2022-12-18T20:13:33.093Z,26.45
2022-12-18T20:16:00.195Z,27.23
2022-12-18T20:18:27.469Z,29.65
2022-12-18T20:20:54.854Z,28.48
2022-12-18T20:23:24.471Z,28.58
2022-12-18T20:25:54.447Z,27.02
2022-12-18T20:28:22.014Z,25.45
2022-12-18T20:30:49.180Z,26.35
2022-12-18T20:33:16.343Z,26.98
2022-12-18T20:35:43.390Z,28.63
2022-12-18T20:38:11.155Z,29.63
2022-12-18T20:40:41.406Z,29.92
2022-12-18T20:43:12.468Z,31.23
2022-12-18T20:45:44.003Z,28.20
2022-12-18T20:48:12.885Z,27.77
2022-12-18T20:50:40.005Z,28.15
2022-12-18T20:53:07.069Z,27.27
2022-12-18T20:55:34.186Z,27.02
2022-12-18T20:58:01.352Z,27.63
2022-12-18T21:00:28.477Z,27.02
2022-12-18T21:02:55.626Z,27.60
2022-12-18T21:05:22.842Z,26.80
2022-12-18T21:07:49.924Z,27.25
2022-12-18T21:10:16.949Z,27.60
2022-12-18T21:12:58.842Z,29.95
2022-12-18T21:15:29.134Z,30.35
2022-12-18T21:17:56.219Z,30.15
2022-12-18T21:20:23.431Z,30.80
2022-12-18T21:22:50.820Z,27.67
2022-12-18T21:25:19.786Z,27.25
2022-12-18T21:27:46.840Z,27.35
2022-12-18T21:30:15.034Z,28.20
2022-12-18T21:32:42.285Z,27.02
2022-12-18T21:35:09.587Z,28.35
2022-12-18T21:37:36.742Z,28.02
2022-12-18T21:40:04.127Z,28.00
2022-12-18T21:42:49.865Z,29.63
2022-12-18T21:45:16.883Z,29.58
2022-12-18T21:47:43.975Z,29.15
2022-12-18T21:50:11.089Z,28.92
2022-12-18T21:52:38.105Z,28.92
2022-12-18T21:55:09.397Z,31.27
2022-12-18T21:57:37.845Z,30.88
2022-12-18T22:00:05.736Z,26.90
2022-12-18T22:02:32.963Z,28.38
2022-12-18T22:05:00.165Z,26.45
2022-12-18T22:07:29.129Z,27.98
2022-12-18T22:09:56.217Z,29.17
2022-12-18T22:12:42.904Z,27.70
2022-12-18T22:15:11.105Z,26.45
2022-12-18T22:17:39.801Z,26.98
2022-12-18T22:20:09.227Z,26.98
2022-12-18T22:22:36.240Z,28.45
2022-12-18T22:25:03.351Z,28.48
2022-12-18T22:27:30.399Z,28.33
2022-12-18T22:30:06.771Z,28.02
2022-12-18T22:32:34.088Z,29.35
2022-12-18T22:35:06.237Z,27.73
2022-12-18T22:37:35.311Z,29.52
2022-12-18T22:40:04.253Z,27.88
2022-12-18T22:42:32.019Z,29.50
2022-12-18T22:45:00.193Z,28.48
2022-12-18T22:47:29.968Z,28.77
2022-12-18T22:49:57.623Z,28.33
2022-12-18T22:52:25.201Z,28.00
2022-12-18T22:54:53.511Z,29.17
2022-12-18T22:57:21.701Z,28.27
2022-12-18T22:59:49.152Z,27.77
2022-12-18T23:02:17.816Z,30.23
2022-12-18T23:04:45.162Z,29.77
2022-12-18T23:07:12.478Z,28.42
2022-12-18T23:09:39.763Z,28.00
2022-12-18T23:12:07.028Z,27.33
2022-12-18T23:14:34.146Z,26.27
2022-12-18T23:17:01.224Z,27.65
2022-12-18T23:19:28.992Z,27.38
2022-12-18T23:21:58.618Z,27.08
2022-12-18T23:24:26.087Z,27.20
2022-12-18T23:26:53.123Z,27.42
2022-12-18T23:29:20.430Z,27.13
2022-12-18T23:31:47.477Z,27.60
2022-12-18T23:34:14.782Z,29.33
2022-12-18T23:36:46.166Z,28.23
2022-12-18T23:39:29.124Z,28.80
2022-12-18T23:42:00.483Z,26.90
2022-12-18T23:44:27.725Z,27.42
2022-12-18T23:46:54.996Z,26.80
2022-12-18T23:49:22.161Z,26.45
2022-12-18T23:51:49.319Z,28.90
2022-12-18T23:54:16.415Z,26.13
2022-12-18T23:56:43.473Z,27.58
2022-12-18T23:59:10.700Z,27.60
